Time;durP1;ratioP1;P1;durP2;ratioP2;P2;SDS_P1;SDS_P2;PMS_P1;PMS_P2;Temp;Humidity;BMP_temperature;BMP_pressure;BME280_temperature;BME280_humidity;BME280_pressure;Samples;Min_cycle;Max_cycle;Signal;HPM_P1;HPM_P2
2021/12/18 00:01:23;;;;;;;29.67;8.18;;;6.40;99.90;;;;;;4929148;29;20134;-96
2021/12/18 00:03:49;;;;;;;23.30;7.13;;;6.40;99.90;;;;;;4916036;29;20078;-96
2021/12/18 00:06:15;;;;;;;21.38;7.68;;;6.40;99.90;;;;;;4947322;29;20098;-96
2021/12/18 00:08:41;;;;;;;22.45;7.03;;;6.40;99.90;;;;;;4931104;29;20074;-96
2021/12/18 00:11:09;;;;;;;23.63;7.28;;;6.40;99.90;;;;;;4946115;28;20106;-95
2021/12/18 00:13:35;;;;;;;31.27;7.85;;;6.40;99.90;;;;;;4926219;29;20051;-96
2021/12/18 00:16:01;;;;;;;25.38;7.53;;;7.20;99.90;;;;;;4917020;29;20516;-96
2021/12/18 00:18:27;;;;;;;26.27;7.95;;;6.50;99.90;;;;;;4926577;29;20059;-96
2021/12/18 00:20:53;;;;;;;23.00;7.80;;;6.50;99.90;;;;;;4929420;29;20043;-97
2021/12/18 00:23:21;;;;;;;25.88;8.70;;;6.50;99.90;;;;;;4933989;29;20039;-96
2021/12/18 00:25:53;;;;;;;25.05;9.10;;;6.50;99.90;;;;;;4963088;29;20077;-96
2021/12/18 00:28:19;;;;;;;19.90;6.93;;;5.80;99.90;;;;;;4951379;29;20370;-96
2021/12/18 00:30:46;;;;;;;11.82;5.65;;;6.50;99.90;;;;;;4943835;29;20047;-96
2021/12/18 00:33:11;;;;;;;15.82;5.85;;;6.10;99.90;;;;;;4953807;29;20077;-96
2021/12/18 00:35:38;;;;;;;13.95;4.85;;;6.50;99.90;;;;;;4955060;29;20047;-96
2021/12/18 00:38:06;;;;;;;20.00;6.72;;;6.90;99.90;;;;;;4952846;29;20045;-96
2021/12/18 00:40:46;;;;;;;12.38;5.20;;;6.30;99.90;;;;;;4940951;29;20031;-96
2021/12/18 00:43:29;;;;;;;13.85;4.78;;;6.40;99.90;;;;;;4944823;29;20040;-96
2021/12/18 00:45:55;;;;;;;18.52;5.72;;;6.90;99.90;;;;;;4960140;28;20047;-96
2021/12/18 00:48:22;;;;;;;15.20;5.30;;;6.30;99.90;;;;;;4957775;28;20062;-96
2021/12/18 00:50:49;;;;;;;19.27;5.82;;;6.30;99.90;;;;;;4937363;29;20039;-96
2021/12/18 00:53:16;;;;;;;22.75;6.05;;;6.30;99.90;;;;;;4935845;29;20043;-96
2021/12/18 00:55:43;;;;;;;28.35;6.63;;;6.30;99.90;;;;;;4954469;28;20043;-96
2021/12/18 00:58:09;;;;;;;34.72;6.95;;;6.30;99.90;;;;;;4943646;28;20093;-96
2021/12/18 01:00:37;;;;;;;32.35;8.43;;;6.30;99.90;;;;;;4929320;28;20406;-96
2021/12/18 01:03:04;;;;;;;32.13;7.55;;;6.80;99.90;;;;;;4934659;28;20109;-96
2021/12/18 01:05:32;;;;;;;27.23;7.35;;;6.70;99.90;;;;;;4934434;28;20042;-96
2021/12/18 01:07:58;;;;;;;30.15;7.32;;;6.50;99.90;;;;;;4952847;28;20057;-96
2021/12/18 01:13:00;;;;;;;32.42;8.45;;;6.20;99.90;;;;;;4969380;28;20054;-96
2021/12/18 01:15:31;;;;;;;32.75;8.25;;;6.30;99.90;;;;;;4950235;28;20046;-96
2021/12/18 01:23:26;;;;;;;63.97;11.15;;;6.30;99.90;;;;;;4970232;28;20035;-96
2021/12/18 01:25:54;;;;;;;43.92;8.27;;;6.30;99.90;;;;;;4937806;29;20681;-96
2021/12/18 01:28:20;;;;;;;32.75;7.95;;;6.30;99.90;;;;;;4934794;29;20035;-96
2021/12/18 01:30:46;;;;;;;37.47;8.60;;;6.30;99.90;;;;;;4955941;28;20031;-96
2021/12/18 01:33:12;;;;;;;46.70;9.02;;;6.70;99.90;;;;;;4946033;28;20046;-96
2021/12/18 01:35:38;;;;;;;65.35;9.73;;;7.00;99.90;;;;;;4935220;28;20497;-96
2021/12/18 01:38:04;;;;;;;35.03;7.00;;;6.40;99.90;;;;;;4936666;28;20074;-96
2021/12/18 01:40:31;;;;;;;26.15;6.85;;;6.30;99.90;;;;;;4941040;28;20098;-96
2021/12/18 01:53:58;;;;;;;51.80;7.45;;;6.30;99.90;;;;;;4929314;28;20042;-96
2021/12/18 01:56:26;;;;;;;48.85;7.97;;;6.30;99.90;;;;;;4956392;28;20039;-96
2021/12/18 01:58:54;;;;;;;64.40;8.88;;;6.30;99.90;;;;;;4950933;28;20043;-96
2021/12/18 02:01:20;;;;;;;51.75;8.38;;;6.30;99.90;;;;;;4951441;28;20165;-96
2021/12/18 02:03:47;;;;;;;46.50;7.85;;;6.20;99.90;;;;;;4950223;28;20039;-96
2021/12/18 02:06:13;;;;;;;41.63;6.80;;;6.20;99.90;;;;;;4951482;28;20034;-96
2021/12/18 02:08:40;;;;;;;52.13;7.68;;;6.20;99.90;;;;;;4932694;28;20043;-96
2021/12/18 02:14:36;;;;;;;25.70;5.93;;;6.20;99.90;;;;;;4942459;28;20047;-96
2021/12/18 02:21:51;;;;;;;25.42;5.63;;;6.20;99.90;;;;;;4948837;28;20129;-96
2021/12/18 02:24:18;;;;;;;32.47;6.35;;;6.10;99.90;;;;;;4913417;28;20066;-96
2021/12/18 02:26:44;;;;;;;22.05;5.15;;;6.10;99.90;;;;;;4927005;28;20125;-95
2021/12/18 02:29:14;;;;;;;33.25;5.32;;;6.50;99.90;;;;;;4907605;28;20077;-96
2021/12/18 02:31:40;;;;;;;21.38;4.90;;;6.80;99.90;;;;;;4928104;28;20047;-96
2021/12/18 02:34:13;;;;;;;7.68;2.80;;;6.00;99.90;;;;;;4909330;29;20047;-96
2021/12/18 02:36:46;;;;;;;7.97;2.90;;;6.40;99.90;;;;;;4927448;28;20043;-96
2021/12/18 02:39:40;;;;;;;6.93;3.05;;;6.00;99.90;;;;;;4943477;28;20098;-96
2021/12/18 02:44:32;;;;;;;11.00;3.80;;;5.90;99.90;;;;;;4946144;28;20050;-96
2021/12/18 02:46:58;;;;;;;8.75;3.38;;;6.20;99.90;;;;;;4931727;28;20050;-95
2021/12/18 02:49:25;;;;;;;10.77;3.58;;;6.70;99.90;;;;;;4928318;29;20059;-95
2021/12/18 02:51:51;;;;;;;16.35;4.22;;;5.80;99.90;;;;;;4922199;28;20035;-96
2021/12/18 02:54:17;;;;;;;13.85;4.25;;;5.80;99.90;;;;;;4914751;28;20039;-96
2021/12/18 02:56:42;;;;;;;16.75;3.95;;;5.80;99.90;;;;;;4930523;28;20078;-96
2021/12/18 02:59:09;;;;;;;16.23;4.07;;;5.90;99.90;;;;;;4927571;28;20038;-95
2021/12/18 03:01:40;;;;;;;6.85;2.72;;;5.80;99.90;;;;;;4931706;28;20050;-96
2021/12/18 03:04:25;;;;;;;8.73;2.92;;;6.40;99.90;;;;;;4933510;28;20038;-96
2021/12/18 03:06:56;;;;;;;11.50;3.30;;;6.40;99.90;;;;;;4942788;28;20042;-96
2021/12/18 03:25:31;;;;;;;6.53;2.42;;;5.80;99.90;;;;;;4922123;29;20118;-96
2021/12/18 03:28:03;;;;;;;7.18;2.40;;;6.20;99.90;;;;;;4931576;28;20039;-96
2021/12/18 03:30:29;;;;;;;8.38;2.70;;;5.80;99.90;;;;;;4932378;28;20519;-96
2021/12/18 03:32:55;;;;;;;6.93;2.90;;;6.30;99.90;;;;;;4927056;28;20043;-96
2021/12/18 03:35:21;;;;;;;5.70;2.30;;;5.80;99.90;;;;;;4925007;28;20504;-94
2021/12/18 03:37:47;;;;;;;6.00;2.17;;;6.80;99.90;;;;;;4926117;28;20062;-96
2021/12/18 03:40:16;;;;;;;4.78;2.30;;;5.80;99.90;;;;;;4918473;28;20425;-96
2021/12/18 03:42:42;;;;;;;7.25;2.33;;;5.80;99.90;;;;;;4944109;28;20039;-96
2021/12/18 03:45:09;;;;;;;7.57;2.47;;;6.40;99.90;;;;;;4926173;28;20377;-96
2021/12/18 03:47:36;;;;;;;5.25;2.28;;;5.70;99.90;;;;;;4943961;28;20055;-95
2021/12/18 03:50:03;;;;;;;5.32;2.20;;;5.70;99.90;;;;;;4941989;28;20035;-96
2021/12/18 03:52:29;;;;;;;5.75;1.95;;;5.70;99.90;;;;;;4930711;28;20045;-96
2021/12/18 03:54:55;;;;;;;5.30;2.25;;;5.70;99.90;;;;;;4944327;28;20039;-96
2021/12/18 03:57:20;;;;;;;6.63;2.25;;;5.70;99.90;;;;;;4925763;29;20557;-96
2021/12/18 03:59:46;;;;;;;4.43;1.85;;;6.50;99.90;;;;;;4924672;28;20508;-94
2021/12/18 04:02:12;;;;;;;2.92;1.50;;;6.30;99.90;;;;;;4930385;28;20038;-96
2021/12/18 04:04:38;;;;;;;3.42;1.23;;;5.60;99.90;;;;;;4946132;28;20496;-95
2021/12/18 04:07:07;;;;;;;2.65;1.38;;;5.50;99.90;;;;;;4927610;28;20054;-96
2021/12/18 04:09:34;;;;;;;4.22;1.58;;;5.50;99.90;;;;;;4937031;28;20137;-96
2021/12/18 04:12:00;;;;;;;4.72;1.98;;;5.90;99.90;;;;;;4931228;28;20046;-96
2021/12/18 04:14:26;;;;;;;4.57;1.45;;;6.20;99.90;;;;;;4944136;28;20110;-96
2021/12/18 04:16:52;;;;;;;4.43;1.60;;;5.80;99.90;;;;;;4910565;29;20075;-96
2021/12/18 04:19:19;;;;;;;6.32;1.90;;;5.60;99.90;;;;;;4913497;28;20070;-96
2021/12/18 04:21:46;;;;;;;4.60;1.80;;;5.40;99.90;;;;;;4945063;28;20503;-96
2021/12/18 04:24:12;;;;;;;6.45;1.73;;;5.40;99.90;;;;;;4945522;28;20039;-95
2021/12/18 04:26:38;;;;;;;4.00;1.70;;;5.70;99.90;;;;;;4926886;28;20038;-95
2021/12/18 04:29:07;;;;;;;8.15;2.40;;;6.40;99.90;;;;;;4942986;28;20030;-96
2021/12/18 04:31:34;;;;;;;5.57;1.95;;;5.50;99.90;;;;;;4929489;28;20491;-96
2021/12/18 04:34:00;;;;;;;6.50;2.08;;;6.30;99.90;;;;;;4929141;28;20054;-96
2021/12/18 04:36:26;;;;;;;4.45;2.00;;;5.50;99.90;;;;;;4909376;28;20067;-96
2021/12/18 04:38:52;;;;;;;8.77;2.38;;;5.50;99.90;;;;;;4930449;28;20078;-96
2021/12/18 04:41:23;;;;;;;10.55;2.58;;;5.90;99.90;;;;;;4945525;28;20506;-96
2021/12/18 04:43:50;;;;;;;11.60;3.03;;;6.50;99.90;;;;;;4927079;29;20038;-96
2021/12/18 04:46:16;;;;;;;6.80;2.33;;;5.50;99.90;;;;;;4942397;28;20121;-95
2021/12/18 04:48:41;;;;;;;9.52;2.90;;;5.50;99.90;;;;;;4942679;28;20079;-96
2021/12/18 04:51:07;;;;;;;12.07;2.83;;;5.50;99.90;;;;;;4910332;28;20519;-96
2021/12/18 04:53:33;;;;;;;8.63;2.60;;;5.40;99.90;;;;;;4924467;28;20050;-95
2021/12/18 04:55:58;;;;;;;6.22;2.20;;;5.50;99.90;;;;;;4926130;28;20449;-96
2021/12/18 04:58:24;;;;;;;9.45;2.67;;;5.40;99.90;;;;;;4929056;28;20118;-96
2021/12/18 05:00:50;;;;;;;13.45;2.75;;;5.40;99.90;;;;;;4927799;28;20038;-96
2021/12/18 05:03:18;;;;;;;8.05;2.33;;;6.10;99.90;;;;;;4929022;28;20043;-96
2021/12/18 05:05:44;;;;;;;7.82;2.50;;;5.40;99.90;;;;;;4922622;29;20039;-96
2021/12/18 05:08:10;;;;;;;6.97;1.98;;;6.60;99.90;;;;;;4928976;28;20035;-96
2021/12/18 05:10:36;;;;;;;8.77;2.67;;;5.20;99.90;;;;;;4927995;28;20041;-96
2021/12/18 05:13:02;;;;;;;11.02;2.92;;;5.40;99.90;;;;;;4912688;28;20043;-95
2021/12/18 05:15:27;;;;;;;7.70;2.58;;;5.40;99.90;;;;;;4906416;28;20078;-96
2021/12/18 05:17:53;;;;;;;10.63;3.10;;;6.10;99.90;;;;;;4928246;28;20043;-96
2021/12/18 05:20:19;;;;;;;8.95;3.05;;;6.20;99.90;;;;;;4913591;28;20070;-96
2021/12/18 05:22:45;;;;;;;13.10;3.00;;;5.40;99.90;;;;;;4929948;28;20038;-96
2021/12/18 05:25:11;;;;;;;10.27;3.28;;;5.40;99.90;;;;;;4929928;28;20049;-95
2021/12/18 05:27:37;;;;;;;8.75;2.88;;;6.00;99.90;;;;;;4927201;28;20523;-96
2021/12/18 05:30:10;;;;;;;10.18;3.00;;;5.50;99.90;;;;;;4943487;28;20039;-95
2021/12/18 05:32:36;;;;;;;15.20;3.50;;;5.40;99.90;;;;;;4926398;28;20122;-95
2021/12/18 05:35:03;;;;;;;7.65;3.10;;;5.40;99.90;;;;;;4928136;28;20132;-95
2021/12/18 05:37:44;;;;;;;16.25;3.90;;;5.40;99.90;;;;;;4928321;28;20035;-95
2021/12/18 05:40:11;;;;;;;24.10;4.65;;;5.40;99.90;;;;;;4940002;28;20058;-95
2021/12/18 05:42:37;;;;;;;12.15;3.10;;;5.40;99.90;;;;;;4945171;28;20035;-95
2021/12/18 05:45:05;;;;;;;15.18;3.25;;;5.50;99.90;;;;;;4930127;28;20035;-95
2021/12/18 05:47:31;;;;;;;20.00;3.50;;;5.50;99.90;;;;;;4912493;28;20070;-95
2021/12/18 05:49:57;;;;;;;22.27;3.83;;;6.00;99.90;;;;;;4911599;28;20046;-94
2021/12/18 05:52:24;;;;;;;9.10;3.10;;;6.40;99.90;;;;;;4941958;28;20039;-96
2021/12/18 05:54:49;;;;;;;14.38;3.50;;;5.50;99.90;;;;;;4928320;28;20043;-94
2021/12/18 05:57:15;;;;;;;12.40;3.40;;;5.50;99.90;;;;;;4914031;28;20042;-95
2021/12/18 05:59:41;;;;;;;14.20;3.50;;;6.70;99.90;;;;;;4930726;28;20693;-95
2021/12/18 06:02:07;;;;;;;13.20;3.50;;;6.30;99.90;;;;;;4916975;29;20545;-94
2021/12/18 06:04:33;;;;;;;9.05;2.88;;;6.70;99.90;;;;;;4936682;28;20114;-94
2021/12/18 06:07:06;;;;;;;16.38;3.60;;;5.50;99.90;;;;;;4923859;28;20119;-93
2021/12/18 06:09:35;;;;;;;8.93;3.10;;;5.50;99.90;;;;;;4926906;28;20496;-94
2021/12/18 06:12:01;;;;;;;11.80;2.90;;;5.50;99.90;;;;;;4944522;28;20048;-95
2021/12/18 06:14:28;;;;;;;12.80;3.00;;;5.50;99.90;;;;;;4944634;28;20038;-94
2021/12/18 06:16:54;;;;;;;8.60;3.17;;;6.50;99.90;;;;;;4944885;28;20132;-93
2021/12/18 06:19:20;;;;;;;18.73;3.80;;;6.60;99.90;;;;;;4945426;28;20066;-93
2021/12/18 06:21:46;;;;;;;13.35;3.72;;;5.90;99.90;;;;;;4930072;29;20063;-93
2021/12/18 06:24:11;;;;;;;20.40;3.72;;;5.90;99.90;;;;;;4917033;28;20046;-94
2021/12/18 06:26:37;;;;;;;20.20;4.03;;;5.70;99.90;;;;;;4912369;29;20050;-93
2021/12/18 06:29:03;;;;;;;23.38;5.20;;;5.50;99.90;;;;;;4928487;28;20112;-94
2021/12/18 06:31:30;;;;;;;13.70;3.78;;;5.50;99.90;;;;;;4940970;29;20144;-94
2021/12/18 06:33:56;;;;;;;16.73;4.88;;;5.60;99.90;;;;;;4924996;28;20139;-93
2021/12/18 06:36:21;;;;;;;18.27;6.68;;;5.60;99.90;;;;;;4928279;28;20157;-94
2021/12/18 06:38:47;;;;;;;28.27;8.75;;;6.30;99.90;;;;;;4916028;28;20049;-94
2021/12/18 06:41:13;;;;;;;16.77;6.70;;;6.20;99.90;;;;;;4923881;28;20035;-94
2021/12/18 06:43:38;;;;;;;19.05;6.22;;;6.30;99.90;;;;;;4931776;28;20039;-94
2021/12/18 06:46:07;;;;;;;15.55;4.55;;;5.60;99.90;;;;;;4928207;28;20085;-93
2021/12/18 06:48:34;;;;;;;12.75;3.22;;;5.60;99.90;;;;;;4909639;28;20062;-94
2021/12/18 06:50:59;;;;;;;12.73;3.40;;;5.60;99.90;;;;;;4931929;28;20065;-95
2021/12/18 06:53:25;;;;;;;15.18;3.65;;;5.60;99.90;;;;;;4913843;28;20134;-95
2021/12/18 06:55:51;;;;;;;14.65;2.97;;;5.60;99.90;;;;;;4932357;28;20147;-94
2021/12/18 06:58:17;;;;;;;10.95;3.20;;;5.60;99.90;;;;;;4913291;28;20503;-93
2021/12/18 07:00:42;;;;;;;10.57;2.92;;;5.70;99.90;;;;;;4931458;28;20484;-95
2021/12/18 07:03:08;;;;;;;11.20;3.05;;;6.60;99.90;;;;;;4913499;28;20062;-94
2021/12/18 07:05:34;;;;;;;10.80;2.67;;;6.70;99.90;;;;;;4928418;29;20027;-94
2021/12/18 07:08:00;;;;;;;9.18;2.83;;;5.60;99.90;;;;;;4908980;28;20047;-93
2021/12/18 07:10:26;;;;;;;12.25;2.63;;;6.30;99.90;;;;;;4942773;29;20046;-93
2021/12/18 07:12:51;;;;;;;13.65;2.75;;;6.30;99.90;;;;;;4916948;28;20688;-94
2021/12/18 07:15:17;;;;;;;7.40;2.40;;;5.50;99.90;;;;;;4930388;28;20034;-93
2021/12/18 07:17:43;;;;;;;11.13;2.88;;;5.80;99.90;;;;;;4923229;28;20126;-94
2021/12/18 07:20:10;;;;;;;13.88;3.20;;;5.50;99.90;;;;;;4927163;29;20035;-95
2021/12/18 07:22:36;;;;;;;9.27;3.20;;;5.50;99.90;;;;;;4944516;28;20039;-94
2021/12/18 07:25:02;;;;;;;11.07;2.90;;;5.50;99.90;;;;;;4931150;28;20043;-93
2021/12/18 07:27:28;;;;;;;7.80;2.90;;;5.60;99.90;;;;;;4930135;28;20086;-93
2021/12/18 07:29:54;;;;;;;13.73;3.40;;;5.60;99.90;;;;;;4930802;28;20121;-95
2021/12/18 07:32:19;;;;;;;10.70;3.35;;;6.60;99.90;;;;;;4928349;28;20065;-92
2021/12/18 07:34:45;;;;;;;12.43;3.63;;;5.60;99.90;;;;;;4937067;28;20043;-92
2021/12/18 07:37:11;;;;;;;12.45;3.22;;;5.60;99.90;;;;;;4932054;28;20035;-91
2021/12/18 07:39:36;;;;;;;15.73;3.72;;;5.60;99.90;;;;;;4916982;28;20042;-90
2021/12/18 07:42:03;;;;;;;13.23;3.65;;;5.60;99.90;;;;;;4901125;28;20496;-92
2021/12/18 07:44:28;;;;;;;15.88;5.30;;;5.60;99.90;;;;;;4905519;28;20043;-89
2021/12/18 07:46:54;;;;;;;12.52;3.78;;;6.30;99.90;;;;;;4913212;28;20054;-90
2021/12/18 07:49:20;;;;;;;12.88;3.83;;;5.60;99.90;;;;;;4931456;28;20043;-89
2021/12/18 07:51:46;;;;;;;13.73;3.53;;;5.60;99.90;;;;;;4906882;28;20097;-88
2021/12/18 07:54:11;;;;;;;13.13;3.10;;;5.60;99.90;;;;;;4936683;28;20054;-87
2021/12/18 07:56:37;;;;;;;8.85;3.10;;;5.60;99.90;;;;;;4929989;28;20172;-92
2021/12/18 07:59:03;;;;;;;12.02;3.13;;;5.80;99.90;;;;;;4933506;28;20113;-91
2021/12/18 08:01:29;;;;;;;12.48;3.80;;;5.60;99.90;;;;;;4910713;28;20031;-90
2021/12/18 08:03:55;;;;;;;12.40;3.92;;;5.60;99.90;;;;;;4918196;28;20043;-95
2021/12/18 08:06:21;;;;;;;12.43;4.05;;;5.60;99.90;;;;;;4928154;28;20046;-88
2021/12/18 08:08:48;;;;;;;14.55;4.30;;;5.60;99.90;;;;;;4902890;28;20043;-87
2021/12/18 08:11:15;;;;;;;10.73;4.40;;;5.70;99.90;;;;;;4922200;28;20566;-88
2021/12/18 08:13:41;;;;;;;20.13;4.22;;;5.70;99.90;;;;;;4937303;28;20086;-90
2021/12/18 08:16:06;;;;;;;14.35;4.10;;;5.70;99.90;;;;;;4938877;28;20193;-91
2021/12/18 08:18:32;;;;;;;18.70;4.53;;;6.00;99.90;;;;;;4937307;28;20556;-91
2021/12/18 08:20:58;;;;;;;14.20;3.35;;;6.30;99.90;;;;;;4920703;28;20035;-90
2021/12/18 08:23:24;;;;;;;10.70;3.90;;;5.80;99.90;;;;;;4897969;29;20050;-91
2021/12/18 08:25:50;;;;;;;13.27;4.03;;;5.80;99.90;;;;;;4926798;28;20034;-90
2021/12/18 08:28:15;;;;;;;13.77;3.78;;;6.20;99.90;;;;;;4920055;28;20066;-90
2021/12/18 08:30:42;;;;;;;13.75;4.18;;;5.90;99.90;;;;;;4916480;28;20445;-92
2021/12/18 08:33:08;;;;;;;14.13;3.92;;;5.80;99.90;;;;;;4951946;28;20122;-91
2021/12/18 08:35:35;;;;;;;16.45;4.20;;;6.20;99.90;;;;;;4934866;28;20058;-92
2021/12/18 08:38:01;;;;;;;15.00;4.30;;;5.80;99.90;;;;;;4909726;28;20107;-93
2021/12/18 08:40:29;;;;;;;17.20;4.28;;;5.90;99.90;;;;;;4921204;28;20086;-91
2021/12/18 08:42:55;;;;;;;13.13;4.45;;;5.90;99.90;;;;;;4926735;28;20061;-91
2021/12/18 08:45:21;;;;;;;16.65;4.07;;;6.90;99.90;;;;;;4908804;28;20079;-87
2021/12/18 08:47:47;;;;;;;13.60;4.20;;;6.30;99.90;;;;;;4937332;28;20705;-87
2021/12/18 08:50:18;;;;;;;14.88;4.15;;;6.60;99.90;;;;;;4918480;28;20050;-88
2021/12/18 08:52:45;;;;;;;19.63;5.75;;;6.80;99.90;;;;;;4938523;28;20042;-90
2021/12/18 08:55:11;;;;;;;16.60;4.88;;;6.00;99.90;;;;;;4934443;28;20039;-88
2021/12/18 08:57:37;;;;;;;17.73;5.00;;;6.10;99.90;;;;;;4937039;28;20515;-89
2021/12/18 09:00:05;;;;;;;17.70;8.68;;;6.40;99.90;;;;;;4938288;28;20111;-91
2021/12/18 09:02:31;;;;;;;27.55;8.95;;;6.10;99.90;;;;;;4923040;28;20031;-91
2021/12/18 09:04:57;;;;;;;14.13;5.13;;;6.30;99.90;;;;;;4940999;28;20038;-94
2021/12/18 09:07:25;;;;;;;16.48;5.30;;;6.90;99.90;;;;;;4940594;28;20516;-91
2021/12/18 09:09:51;;;;;;;15.93;5.55;;;6.10;99.90;;;;;;4931972;28;20057;-90
2021/12/18 09:12:17;;;;;;;15.82;5.82;;;6.20;99.90;;;;;;4906402;28;20031;-87
2021/12/18 09:14:43;;;;;;;18.35;6.80;;;6.20;99.90;;;;;;4930779;28;20038;-92
2021/12/18 09:17:09;;;;;;;24.70;6.47;;;6.20;99.90;;;;;;4934086;28;20051;-91
2021/12/18 09:19:35;;;;;;;14.63;6.07;;;7.00;99.90;;;;;;4948604;28;20488;-91
2021/12/18 09:22:01;;;;;;;19.67;6.10;;;6.70;99.90;;;;;;4947588;28;20043;-91
2021/12/18 09:24:27;;;;;;;23.17;7.30;;;6.30;99.90;;;;;;4898914;28;20031;-90
2021/12/18 09:26:52;;;;;;;17.85;5.65;;;6.40;99.90;;;;;;4931727;28;20532;-90
2021/12/18 09:29:21;;;;;;;18.30;5.95;;;6.40;99.90;;;;;;4897946;28;20043;-87
2021/12/18 09:31:47;;;;;;;16.70;5.72;;;6.40;99.90;;;;;;4948628;28;20125;-88
2021/12/18 09:34:13;;;;;;;17.38;6.30;;;6.40;99.90;;;;;;4937114;28;20117;-90
2021/12/18 09:36:38;;;;;;;19.63;6.65;;;6.60;99.90;;;;;;4940897;28;20489;-87
2021/12/18 09:39:05;;;;;;;16.35;5.97;;;6.50;99.90;;;;;;4954235;28;20030;-94
2021/12/18 09:41:32;;;;;;;22.38;7.97;;;6.50;99.90;;;;;;4940469;28;20065;-91
2021/12/18 09:43:58;;;;;;;20.70;6.95;;;6.90;99.90;;;;;;4930669;28;20034;-92
2021/12/18 09:46:24;;;;;;;20.23;7.93;;;6.60;99.90;;;;;;4914474;28;20122;-90
2021/12/18 09:48:50;;;;;;;24.45;7.18;;;7.00;99.90;;;;;;4922355;28;20059;-93
2021/12/18 09:54:33;;;;;;;18.63;6.38;;;6.70;99.90;;;;;;5136612;27;20369;-93
2021/12/18 09:56:59;;;;;;;65.68;9.80;;;6.80;99.90;;;;;;5059182;28;20047;-91
2021/12/18 09:59:25;;;;;;;70.72;9.48;;;6.80;99.90;;;;;;5063579;28;20036;-96
2021/12/18 10:01:50;;;;;;;19.38;6.65;;;7.80;99.90;;;;;;5068426;28;20154;-91
2021/12/18 10:04:31;;;;;;;17.92;5.93;;;7.20;99.90;;;;;;5090604;28;20028;-92
2021/12/18 10:07:13;;;;;;;12.95;5.40;;;7.00;99.90;;;;;;5104671;28;20075;-82
2021/12/18 10:09:38;;;;;;;16.38;5.53;;;7.10;99.90;;;;;;5101867;28;20173;-92
2021/12/18 10:12:13;;;;;;;13.80;4.95;;;7.20;99.90;;;;;;5086192;28;20059;-87
2021/12/18 10:15:05;;;;;;;15.38;5.00;;;7.20;99.90;;;;;;5081185;28;20039;-90
2021/12/18 10:17:36;;;;;;;14.63;5.10;;;7.30;99.90;;;;;;5089344;28;20152;-90
2021/12/18 10:20:10;;;;;;;13.57;5.05;;;7.30;99.90;;;;;;5093420;28;20521;-89
2021/12/18 10:22:48;;;;;;;14.15;6.15;;;7.40;99.90;;;;;;5098724;28;20118;-89
2021/12/18 10:25:21;;;;;;;12.38;4.55;;;7.40;99.90;;;;;;5082313;28;20039;-91
2021/12/18 10:28:01;;;;;;;14.00;4.68;;;7.40;99.90;;;;;;5082639;28;20036;-91
2021/12/18 10:30:27;;;;;;;10.85;4.60;;;7.50;99.90;;;;;;5066204;28;20032;-89
2021/12/18 10:32:57;;;;;;;15.65;4.55;;;7.50;99.90;;;;;;5083176;28;21976;-91
2021/12/18 10:35:47;;;;;;;12.48;4.13;;;7.90;99.90;;;;;;5088848;28;20054;-91
2021/12/18 10:38:49;;;;;;;11.55;4.18;;;7.50;99.90;;;;;;5090180;28;20035;-96
2021/12/18 10:41:35;;;;;;;9.55;4.55;;;7.50;99.90;;;;;;5112043;28;20373;-96
2021/12/18 10:44:07;;;;;;;7.72;3.85;;;7.60;99.90;;;;;;5079201;28;20132;-91
2021/12/18 10:46:35;;;;;;;15.30;4.90;;;7.60;99.90;;;;;;5079732;28;20053;-89
2021/12/18 10:49:04;;;;;;;11.98;4.28;;;7.60;99.90;;;;;;5062389;28;20356;-89
2021/12/18 10:51:32;;;;;;;10.80;4.80;;;7.60;99.90;;;;;;5102634;28;20388;-94
2021/12/18 10:54:05;;;;;;;14.20;4.43;;;7.70;99.90;;;;;;5077355;28;21171;-93
2021/12/18 10:56:42;;;;;;;15.23;4.90;;;8.00;99.90;;;;;;5089390;28;20040;-90
2021/12/18 10:59:34;;;;;;;11.23;4.28;;;7.70;99.90;;;;;;5096351;28;20062;-91
2021/12/18 11:02:02;;;;;;;10.85;4.45;;;7.70;99.90;;;;;;5079087;28;20039;-90
2021/12/18 11:04:38;;;;;;;11.82;4.30;;;7.70;99.90;;;;;;5083477;28;20032;-94
2021/12/18 11:07:29;;;;;;;13.70;5.03;;;8.00;99.90;;;;;;5068460;28;20050;-86
2021/12/18 11:10:14;;;;;;;11.98;3.97;;;7.90;99.90;;;;;;5077268;28;20074;-88
2021/12/18 11:15:25;;;;;;;9.90;4.30;;;7.90;99.90;;;;;;5094408;28;20126;-87
2021/12/18 11:17:51;;;;;;;16.02;4.22;;;7.90;99.90;;;;;;5094245;28;20474;-86
2021/12/18 11:20:18;;;;;;;11.82;4.10;;;7.90;99.90;;;;;;5068618;28;20524;-85
2021/12/18 11:22:43;;;;;;;9.60;4.28;;;8.00;99.90;;;;;;5075057;28;20154;-87
2021/12/18 11:25:11;;;;;;;8.90;3.90;;;8.00;99.90;;;;;;5057689;28;20098;-88
2021/12/18 11:27:38;;;;;;;12.93;4.00;;;8.00;99.90;;;;;;5045857;28;20036;-87
2021/12/18 11:30:06;;;;;;;8.10;4.10;;;8.10;99.90;;;;;;5094249;28;20499;-87
2021/12/18 11:32:34;;;;;;;9.15;3.40;;;8.00;99.90;;;;;;5092455;28;21312;-87
2021/12/18 11:35:06;;;;;;;11.10;3.90;;;8.30;99.90;;;;;;5056942;28;20084;-87
2021/12/18 11:37:40;;;;;;;8.80;3.53;;;8.10;99.90;;;;;;5075904;28;20067;-87
2021/12/18 11:40:09;;;;;;;16.05;4.22;;;8.00;99.90;;;;;;5093906;28;20099;-86
2021/12/18 11:42:35;;;;;;;10.20;4.15;;;8.00;99.90;;;;;;5070347;28;20036;-86
2021/12/18 11:45:04;;;;;;;14.88;4.25;;;8.00;99.90;;;;;;5068841;28;20039;-88
2021/12/18 11:47:37;;;;;;;11.68;4.88;;;8.00;99.90;;;;;;5065069;28;20055;-87
2021/12/18 11:50:31;;;;;;;13.48;4.10;;;8.00;99.90;;;;;;5086254;28;20118;-87
2021/12/18 11:53:06;;;;;;;17.13;4.13;;;8.10;99.90;;;;;;5072533;28;20474;-86
2021/12/18 11:55:32;;;;;;;12.95;4.45;;;8.10;99.90;;;;;;5073675;28;20098;-87
2021/12/18 11:58:00;;;;;;;11.15;4.15;;;8.10;99.90;;;;;;5073006;28;20411;-86
2021/12/18 12:00:33;;;;;;;16.38;5.25;;;8.10;99.90;;;;;;5105656;28;20035;-87
2021/12/18 12:03:00;;;;;;;12.50;4.72;;;8.10;99.90;;;;;;5056681;28;20028;-86
2021/12/18 12:05:36;;;;;;;12.15;4.18;;;8.10;99.90;;;;;;5065815;28;20107;-87
2021/12/18 12:08:35;;;;;;;13.30;4.93;;;8.10;99.90;;;;;;5061783;28;20059;-87
2021/12/18 12:11:23;;;;;;;13.75;5.03;;;8.20;99.90;;;;;;5062596;28;20120;-87
2021/12/18 12:14:13;;;;;;;14.05;5.00;;;8.20;99.90;;;;;;5059674;28;20144;-86
2021/12/18 12:16:47;;;;;;;9.98;4.32;;;8.20;99.90;;;;;;5059070;28;20036;-88
2021/12/18 12:19:20;;;;;;;9.68;4.70;;;8.20;99.90;;;;;;5071060;28;20051;-87
2021/12/18 12:21:52;;;;;;;8.75;4.38;;;8.20;99.90;;;;;;5078423;28;20560;-87
2021/12/18 12:24:26;;;;;;;10.82;4.65;;;8.20;99.90;;;;;;5078498;28;20109;-89
2021/12/18 12:26:53;;;;;;;14.60;5.03;;;8.80;99.90;;;;;;5063709;28;20446;-87
2021/12/18 12:29:20;;;;;;;14.82;4.03;;;8.20;99.90;;;;;;5054255;28;20046;-86
2021/12/18 12:32:05;;;;;;;7.88;4.20;;;8.30;99.90;;;;;;5068584;28;20039;-86
2021/12/18 12:34:34;;;;;;;9.80;4.53;;;8.20;99.90;;;;;;5105592;28;20601;-86
2021/12/18 12:37:25;;;;;;;13.50;4.00;;;8.30;99.90;;;;;;5086671;28;20028;-85
2021/12/18 12:39:57;;;;;;;8.65;3.67;;;8.30;99.90;;;;;;5085841;28;20063;-85
2021/12/18 12:42:23;;;;;;;10.38;3.72;;;8.30;99.90;;;;;;5062491;28;20058;-85
2021/12/18 12:44:57;;;;;;;8.88;3.88;;;8.30;99.90;;;;;;5090193;28;20050;-85
2021/12/18 12:47:27;;;;;;;11.43;3.50;;;8.30;99.90;;;;;;5065346;28;20123;-85
2021/12/18 12:49:55;;;;;;;9.20;3.78;;;8.30;99.90;;;;;;5073230;28;20040;-85
2021/12/18 12:52:27;;;;;;;9.35;3.80;;;8.30;99.90;;;;;;5066199;28;20043;-85
2021/12/18 12:55:04;;;;;;;10.20;3.65;;;8.20;99.90;;;;;;5072255;28;20067;-85
2021/12/18 12:57:32;;;;;;;6.10;3.10;;;8.20;99.90;;;;;;5076454;28;20036;-85
2021/12/18 12:59:58;;;;;;;8.02;3.00;;;8.20;99.90;;;;;;5065773;28;20032;-86
2021/12/18 13:02:28;;;;;;;9.80;3.55;;;8.20;99.90;;;;;;5077882;28;20118;-85
2021/12/18 13:05:08;;;;;;;5.28;2.83;;;8.20;99.90;;;;;;5090600;28;20040;-86
2021/12/18 13:07:35;;;;;;;5.30;2.90;;;8.20;99.90;;;;;;5075213;28;20048;-85
2021/12/18 13:10:02;;;;;;;11.25;3.25;;;8.20;99.90;;;;;;5089078;28;20543;-86
2021/12/18 13:12:28;;;;;;;14.52;4.03;;;8.20;99.90;;;;;;5065208;28;20040;-85
2021/12/18 13:14:55;;;;;;;7.95;3.40;;;8.70;99.90;;;;;;5048901;28;20101;-85
2021/12/18 13:17:23;;;;;;;7.32;3.58;;;8.20;99.90;;;;;;5074023;28;20534;-85
2021/12/18 13:20:01;;;;;;;9.63;3.63;;;8.20;99.90;;;;;;5072452;28;20493;-88
2021/12/18 13:22:32;;;;;;;10.65;4.05;;;8.20;99.90;;;;;;5089799;28;20043;-87
2021/12/18 13:25:14;;;;;;;5.80;3.08;;;8.40;99.90;;;;;;5056095;28;20152;-86
2021/12/18 13:28:02;;;;;;;7.00;2.80;;;8.20;99.90;;;;;;5088604;28;20108;-90
2021/12/18 13:30:28;;;;;;;6.60;2.88;;;8.20;99.90;;;;;;5073945;28;20285;-88
2021/12/18 13:32:59;;;;;;;11.73;3.35;;;8.20;99.90;;;;;;5051053;28;20034;-88
2021/12/18 13:35:28;;;;;;;7.70;3.05;;;8.20;99.90;;;;;;5075664;28;20074;-88
2021/12/18 13:37:59;;;;;;;10.55;3.03;;;8.20;99.90;;;;;;5065573;28;20050;-87
2021/12/18 13:40:31;;;;;;;9.80;4.15;;;8.20;99.90;;;;;;5070081;28;20036;-88
2021/12/18 13:43:11;;;;;;;11.88;4.90;;;8.20;99.90;;;;;;5071862;28;20108;-86
2021/12/18 13:45:57;;;;;;;10.30;3.25;;;8.20;99.90;;;;;;5063723;28;20039;-85
2021/12/18 13:48:29;;;;;;;6.63;3.42;;;8.20;99.90;;;;;;5067571;28;20040;-88
2021/12/18 13:51:05;;;;;;;8.68;3.13;;;8.20;99.90;;;;;;5071908;28;20048;-87